Time;durP1;ratioP1;P1;durP2;ratioP2;P2;SDS_P1;SDS_P2;PMS_P1;PMS_P2;Temp;Humidity;BMP_temperature;BMP_pressure;BME280_temperature;BME280_humidity;BME280_pressure;Samples;Min_cycle;Max_cycle;Signal;HPM_P1;HPM_P2
2022/04/08 00:00:48;;;;;;;4.32;1.80;;;;;;;;;;5031389;28;20493;-49
2022/04/08 00:03:14;;;;;;;6.47;2.00;;;;;;;;;;5031609;28;20233;-48
2022/04/08 00:05:40;;;;;;;8.23;2.07;;;;;;;;;;5031642;28;20415;-48
2022/04/08 00:08:07;;;;;;;7.87;1.93;;;;;;;;;;5031663;28;20411;-48
2022/04/08 00:10:33;;;;;;;2.87;2.23;;;;;;;;;;5031273;28;20798;-47
2022/04/08 00:12:59;;;;;;;2.30;2.10;;;;;;;;;;5031450;28;20433;-48
2022/04/08 00:15:25;;;;;;;7.40;3.13;;;;;;;;;;5031585;28;20895;-48
2022/04/08 00:17:51;;;;;;;2.90;2.30;;;;;;;;;;5031757;28;20406;-48
2022/04/08 00:20:17;;;;;;;3.90;2.33;;;;;;;;;;5031660;28;20406;-48
2022/04/08 00:22:43;;;;;;;5.07;3.20;;;;;;;;;;5031296;28;20418;-48
2022/04/08 00:25:09;;;;;;;6.72;3.22;;;;;;;;;;5030256;28;20778;-48
2022/04/08 00:27:35;;;;;;;5.80;2.80;;;;;;;;;;5031333;28;20194;-48
2022/04/08 00:30:01;;;;;;;4.40;2.77;;;;;;;;;;5031132;28;20192;-48
2022/04/08 00:32:27;;;;;;;4.57;3.03;;;;;;;;;;5031530;28;20399;-47
2022/04/08 00:34:53;;;;;;;7.28;3.15;;;;;;;;;;5031307;28;20423;-47
2022/04/08 00:37:19;;;;;;;9.03;4.10;;;;;;;;;;5032503;28;20636;-48
2022/04/08 00:39:45;;;;;;;8.63;3.27;;;;;;;;;;5041949;28;20465;-48
2022/04/08 00:42:14;;;;;;;12.70;4.67;;;;;;;;;;5031106;28;20407;-48
2022/04/08 00:44:40;;;;;;;7.47;4.03;;;;;;;;;;5030672;28;20620;-48
2022/04/08 00:47:06;;;;;;;7.95;4.43;;;;;;;;;;5031179;28;20214;-48
2022/04/08 00:49:33;;;;;;;9.23;4.13;;;;;;;;;;5030427;28;20340;-47
2022/04/08 00:52:01;;;;;;;7.03;3.30;;;;;;;;;;5030621;28;20723;-49
2022/04/08 00:54:27;;;;;;;6.88;3.90;;;;;;;;;;5030887;28;20278;-47
2022/04/08 00:56:53;;;;;;;6.37;3.27;;;;;;;;;;5030915;28;20326;-47
2022/04/08 00:59:19;;;;;;;9.48;5.07;;;;;;;;;;5030729;28;20410;-48
2022/04/08 01:01:46;;;;;;;5.78;4.80;;;;;;;;;;5033636;28;20168;-47
2022/04/08 01:04:12;;;;;;;8.80;4.85;;;;;;;;;;5033055;28;20694;-48
2022/04/08 01:06:38;;;;;;;5.88;5.15;;;;;;;;;;5020772;28;20172;-48
2022/04/08 01:09:04;;;;;;;11.88;5.22;;;;;;;;;;5034335;28;20234;-47
2022/04/08 01:11:30;;;;;;;7.40;5.55;;;;;;;;;;5034413;28;20682;-47
2022/04/08 01:13:56;;;;;;;7.80;5.00;;;;;;;;;;5033799;28;20192;-48
2022/04/08 01:16:22;;;;;;;9.87;5.77;;;;;;;;;;5034387;28;20783;-48
2022/04/08 01:18:48;;;;;;;12.95;5.07;;;;;;;;;;5034077;28;20410;-48
2022/04/08 01:21:14;;;;;;;9.80;5.33;;;;;;;;;;5034011;28;20172;-49
2022/04/08 01:23:43;;;;;;;11.90;5.40;;;;;;;;;;5033968;28;20466;-49
2022/04/08 01:26:12;;;;;;;8.93;5.25;;;;;;;;;;5033937;28;20464;-48
2022/04/08 01:28:38;;;;;;;5.65;4.78;;;;;;;;;;5033703;28;20172;-49
2022/04/08 01:31:04;;;;;;;9.13;4.75;;;;;;;;;;5034016;28;20282;-48
2022/04/08 01:33:30;;;;;;;7.20;4.63;;;;;;;;;;5033853;28;20287;-47
2022/04/08 01:35:57;;;;;;;11.50;6.17;;;;;;;;;;5033604;28;20414;-47
2022/04/08 01:38:23;;;;;;;8.27;5.20;;;;;;;;;;5033439;28;20464;-48
2022/04/08 01:40:49;;;;;;;10.17;5.47;;;;;;;;;;5033861;28;20183;-48
2022/04/08 01:43:15;;;;;;;10.67;5.10;;;;;;;;;;5033224;28;20430;-48
2022/04/08 01:45:41;;;;;;;8.93;4.90;;;;;;;;;;5014354;28;20487;-47
2022/04/08 01:48:07;;;;;;;10.80;5.30;;;;;;;;;;5014155;28;20438;-48
2022/04/08 01:50:33;;;;;;;12.55;5.53;;;;;;;;;;5013783;28;20482;-47
2022/04/08 01:53:00;;;;;;;13.55;4.35;;;;;;;;;;5013893;28;20220;-48
2022/04/08 01:55:26;;;;;;;6.73;3.90;;;;;;;;;;5014775;28;20252;-48
2022/04/08 01:57:52;;;;;;;7.93;3.67;;;;;;;;;;5033994;28;20444;-47
2022/04/08 02:00:18;;;;;;;6.83;3.67;;;;;;;;;;5033497;28;20426;-48
2022/04/08 02:02:44;;;;;;;9.70;3.40;;;;;;;;;;5033537;28;20421;-49
2022/04/08 02:05:10;;;;;;;7.50;3.85;;;;;;;;;;5033478;28;20464;-48
2022/04/08 02:07:36;;;;;;;8.98;2.60;;;;;;;;;;5033651;28;20524;-48
2022/04/08 02:10:03;;;;;;;13.97;3.47;;;;;;;;;;5033313;28;20198;-48
2022/04/08 02:12:29;;;;;;;5.43;2.40;;;;;;;;;;5033474;28;20399;-48
2022/04/08 02:14:55;;;;;;;8.73;2.87;;;;;;;;;;5033362;28;20191;-48
2022/04/08 02:17:21;;;;;;;9.13;2.88;;;;;;;;;;5033419;28;20402;-47
2022/04/08 02:19:47;;;;;;;12.43;2.60;;;;;;;;;;5033080;28;20529;-48
2022/04/08 02:22:13;;;;;;;3.77;2.30;;;;;;;;;;5033226;28;20399;-48
2022/04/08 02:24:39;;;;;;;9.13;3.20;;;;;;;;;;5033187;28;20425;-47
2022/04/08 02:27:06;;;;;;;11.47;2.90;;;;;;;;;;5033097;28;20406;-47
2022/04/08 02:29:33;;;;;;;5.30;2.75;;;;;;;;;;5032926;28;20401;-48
2022/04/08 02:31:59;;;;;;;8.00;2.67;;;;;;;;;;5032954;28;20561;-48
2022/04/08 02:34:25;;;;;;;10.35;2.75;;;;;;;;;;5032945;28;20179;-48
2022/04/08 02:36:51;;;;;;;4.80;2.47;;;;;;;;;;5032977;28;20168;-47
2022/04/08 02:39:17;;;;;;;8.90;3.13;;;;;;;;;;5032937;28;20177;-48
2022/04/08 02:41:43;;;;;;;9.25;3.40;;;;;;;;;;5032730;28;20407;-48
2022/04/08 02:44:09;;;;;;;18.13;3.10;;;;;;;;;;5032798;28;20608;-48
2022/04/08 02:46:35;;;;;;;6.50;2.77;;;;;;;;;;5032849;28;20263;-48
2022/04/08 02:49:01;;;;;;;10.55;2.67;;;;;;;;;;5032553;28;20402;-48
2022/04/08 02:51:28;;;;;;;9.27;2.70;;;;;;;;;;5032491;28;20545;-48
2022/04/08 02:53:55;;;;;;;6.93;2.20;;;;;;;;;;5032455;28;20411;-48
2022/04/08 02:56:20;;;;;;;16.63;3.55;;;;;;;;;;5032642;28;20198;-47
2022/04/08 02:58:49;;;;;;;7.53;2.90;;;;;;;;;;5032645;28;20204;-48
2022/04/08 03:01:18;;;;;;;7.07;4.25;;;;;;;;;;5032307;28;20410;-48
2022/04/08 03:03:44;;;;;;;11.82;4.15;;;;;;;;;;5032288;28;20195;-47
2022/04/08 03:06:10;;;;;;;7.60;4.17;;;;;;;;;;5032393;28;20186;-48
2022/04/08 03:08:36;;;;;;;17.20;5.40;;;;;;;;;;5032591;28;20402;-49
2022/04/08 03:11:02;;;;;;;7.27;3.70;;;;;;;;;;5032007;28;20812;-48
2022/04/08 03:13:28;;;;;;;9.03;4.23;;;;;;;;;;5032229;28;20419;-47
2022/04/08 03:15:54;;;;;;;13.90;5.30;;;;;;;;;;5032320;28;20399;-48
2022/04/08 03:18:20;;;;;;;8.57;5.20;;;;;;;;;;5032189;28;20401;-49
2022/04/08 03:20:46;;;;;;;6.63;4.38;;;;;;;;;;5032077;28;20398;-48
2022/04/08 03:23:12;;;;;;;11.07;5.00;;;;;;;;;;5031654;28;20192;-48
2022/04/08 03:25:38;;;;;;;12.13;4.37;;;;;;;;;;5032139;28;20168;-48
2022/04/08 03:28:04;;;;;;;14.57;4.95;;;;;;;;;;5032118;28;20409;-48
2022/04/08 03:30:31;;;;;;;16.00;4.90;;;;;;;;;;5031831;28;20227;-50
2022/04/08 03:32:57;;;;;;;11.00;3.65;;;;;;;;;;5031806;28;20738;-48
2022/04/08 03:35:23;;;;;;;10.93;3.65;;;;;;;;;;5032066;28;20164;-48
2022/04/08 03:37:49;;;;;;;8.60;3.63;;;;;;;;;;5032082;28;20713;-49
2022/04/08 03:40:16;;;;;;;9.13;4.17;;;;;;;;;;5031643;28;20983;-49
2022/04/08 03:42:42;;;;;;;8.30;3.20;;;;;;;;;;5031724;28;20452;-48
2022/04/08 03:45:08;;;;;;;7.43;4.15;;;;;;;;;;5032386;28;20167;-47
2022/04/08 03:47:34;;;;;;;9.13;3.77;;;;;;;;;;5031801;28;20179;-48
2022/04/08 03:50:00;;;;;;;16.60;4.13;;;;;;;;;;5031443;28;20901;-48
2022/04/08 03:52:32;;;;;;;12.07;3.70;;;;;;;;;;5031728;28;20460;-49
2022/04/08 03:54:58;;;;;;;8.95;4.80;;;;;;;;;;5031675;28;20406;-48
2022/04/08 03:57:23;;;;;;;11.27;4.33;;;;;;;;;;5031773;28;20174;-49
2022/04/08 03:59:50;;;;;;;9.73;4.93;;;;;;;;;;5031468;28;20746;-50
2022/04/08 04:02:16;;;;;;;9.68;4.43;;;;;;;;;;5031938;28;20453;-48
2022/04/08 04:04:41;;;;;;;14.43;4.57;;;;;;;;;;5031641;28;20187;-48
2022/04/08 04:07:08;;;;;;;8.30;3.90;;;;;;;;;;5031604;28;20413;-49
2022/04/08 04:09:34;;;;;;;14.60;4.32;;;;;;;;;;5032048;28;20754;-47
2022/04/08 04:12:00;;;;;;;8.52;3.85;;;;;;;;;;5031482;28;20233;-47
2022/04/08 04:14:26;;;;;;;12.02;3.60;;;;;;;;;;5031428;28;20188;-48
2022/04/08 04:16:52;;;;;;;19.83;3.90;;;;;;;;;;5031529;28;20249;-48
2022/04/08 04:19:18;;;;;;;7.17;3.30;;;;;;;;;;5031631;28;20426;-47
2022/04/08 04:21:45;;;;;;;7.70;3.20;;;;;;;;;;5031383;28;20456;-47
2022/04/08 04:24:11;;;;;;;13.70;2.83;;;;;;;;;;5031472;28;20242;-47
2022/04/08 04:26:37;;;;;;;9.55;3.17;;;;;;;;;;5031467;28;20628;-47
2022/04/08 04:29:03;;;;;;;11.20;2.80;;;;;;;;;;5031310;28;20183;-48
2022/04/08 04:31:28;;;;;;;4.20;2.70;;;;;;;;;;5031073;28;20472;-47
2022/04/08 04:33:54;;;;;;;3.50;2.50;;;;;;;;;;5029959;28;20491;-46
2022/04/08 04:36:20;;;;;;;6.47;2.20;;;;;;;;;;5033113;28;20402;-47
2022/04/08 04:38:46;;;;;;;9.33;2.00;;;;;;;;;;5035202;28;20398;-48
2022/04/08 04:41:12;;;;;;;9.57;3.23;;;;;;;;;;5034988;28;20406;-47
2022/04/08 04:43:38;;;;;;;9.80;2.53;;;;;;;;;;5034994;28;20426;-47
2022/04/08 04:46:04;;;;;;;11.87;3.70;;;;;;;;;;5035076;28;20402;-47
2022/04/08 04:48:31;;;;;;;6.28;3.13;;;;;;;;;;5035107;28;20402;-47
2022/04/08 04:50:57;;;;;;;13.77;4.20;;;;;;;;;;5034934;28;20204;-46
2022/04/08 04:53:23;;;;;;;5.80;3.33;;;;;;;;;;5035182;28;20193;-47
2022/04/08 04:55:49;;;;;;;13.25;4.40;;;;;;;;;;5034933;28;20406;-47
2022/04/08 04:58:15;;;;;;;10.38;4.35;;;;;;;;;;5034791;28;20172;-47
2022/04/08 05:00:41;;;;;;;12.80;4.07;;;;;;;;;;5034637;28;20172;-48
2022/04/08 05:03:08;;;;;;;6.60;4.75;;;;;;;;;;5034635;28;20574;-47
2022/04/08 05:05:34;;;;;;;16.92;5.00;;;;;;;;;;5034864;28;20168;-47
2022/04/08 05:08:02;;;;;;;9.15;4.82;;;;;;;;;;5034704;28;20164;-47
2022/04/08 05:10:29;;;;;;;10.48;4.97;;;;;;;;;;5034362;28;20199;-48
2022/04/08 05:12:55;;;;;;;10.10;5.45;;;;;;;;;;5034376;28;20612;-47
2022/04/08 05:15:21;;;;;;;9.15;6.40;;;;;;;;;;5034627;28;20164;-47
2022/04/08 05:17:47;;;;;;;15.63;7.47;;;;;;;;;;5034559;28;20209;-48
2022/04/08 05:20:13;;;;;;;10.95;6.20;;;;;;;;;;5034560;28;20776;-47
2022/04/08 05:22:41;;;;;;;8.65;6.03;;;;;;;;;;5034304;28;20257;-47
2022/04/08 05:25:07;;;;;;;10.38;5.85;;;;;;;;;;5034370;28;20171;-47
2022/04/08 05:27:37;;;;;;;18.63;6.97;;;;;;;;;;5034269;28;20274;-46
2022/04/08 05:30:04;;;;;;;15.25;4.90;;;;;;;;;;5033929;28;20722;-46
2022/04/08 05:32:30;;;;;;;10.85;4.60;;;;;;;;;;5034236;28;20172;-47
2022/04/08 05:34:56;;;;;;;13.07;4.00;;;;;;;;;;5034114;28;20250;-47
2022/04/08 05:37:22;;;;;;;10.10;4.03;;;;;;;;;;5034503;28;20452;-47
2022/04/08 05:39:48;;;;;;;5.68;3.38;;;;;;;;;;5033956;28;20395;-47
2022/04/08 05:42:14;;;;;;;6.80;3.57;;;;;;;;;;5033955;28;20698;-48
2022/04/08 05:44:40;;;;;;;10.67;4.77;;;;;;;;;;5033973;28;20979;-48
2022/04/08 05:47:06;;;;;;;6.00;4.90;;;;;;;;;;5033563;28;20922;-47
2022/04/08 05:49:32;;;;;;;10.02;4.43;;;;;;;;;;5033617;28;20813;-46
2022/04/08 05:51:58;;;;;;;7.20;3.90;;;;;;;;;;5033752;28;20195;-46
2022/04/08 05:54:23;;;;;;;14.20;5.13;;;;;;;;;;5033749;28;20926;-47
2022/04/08 05:56:49;;;;;;;9.07;4.50;;;;;;;;;;5033397;28;20402;-47
2022/04/08 05:59:15;;;;;;;6.23;4.40;;;;;;;;;;5033071;28;20489;-47
2022/04/08 06:01:41;;;;;;;10.30;4.10;;;;;;;;;;5033113;28;20411;-47
2022/04/08 06:04:07;;;;;;;13.13;5.17;;;;;;;;;;5033160;28;20501;-48
2022/04/08 06:06:34;;;;;;;13.73;4.63;;;;;;;;;;5032954;28;20410;-47
2022/04/08 06:08:59;;;;;;;10.10;5.50;;;;;;;;;;5033003;28;20407;-47
2022/04/08 06:11:25;;;;;;;10.37;5.57;;;;;;;;;;5032874;28;20557;-47
2022/04/08 06:13:51;;;;;;;11.10;5.77;;;;;;;;;;5032688;28;20426;-48
2022/04/08 06:16:19;;;;;;;14.33;6.40;;;;;;;;;;5032937;28;20493;-47
2022/04/08 06:18:45;;;;;;;7.35;5.45;;;;;;;;;;5032852;28;20457;-46
2022/04/08 06:21:11;;;;;;;10.57;5.73;;;;;;;;;;5033243;28;20175;-47
2022/04/08 06:23:36;;;;;;;9.83;6.30;;;;;;;;;;5033035;28;20430;-47
2022/04/08 06:26:03;;;;;;;9.00;5.97;;;;;;;;;;5033217;28;20406;-47
2022/04/08 06:28:29;;;;;;;9.60;5.30;;;;;;;;;;5033180;28;20411;-46
2022/04/08 06:30:54;;;;;;;9.43;5.60;;;;;;;;;;5032973;28;20702;-47
2022/04/08 06:33:21;;;;;;;12.33;5.60;;;;;;;;;;5033005;28;20919;-46
2022/04/08 06:35:46;;;;;;;12.60;5.80;;;;;;;;;;5033056;28;20399;-47
2022/04/08 06:38:14;;;;;;;6.73;4.83;;;;;;;;;;5032945;28;20163;-46
2022/04/08 06:40:40;;;;;;;14.05;5.32;;;;;;;;;;5032775;28;20409;-47
2022/04/08 06:43:06;;;;;;;14.23;5.60;;;;;;;;;;5029839;28;20628;-47
2022/04/08 06:45:33;;;;;;;10.90;5.03;;;;;;;;;;5032775;28;20413;-47
2022/04/08 06:47:59;;;;;;;13.48;6.07;;;;;;;;;;5033570;28;20226;-46
2022/04/08 06:50:25;;;;;;;12.63;4.70;;;;;;;;;;5032249;28;20203;-47
2022/04/08 06:52:53;;;;;;;12.60;5.33;;;;;;;;;;5032626;28;20422;-48
2022/04/08 06:55:19;;;;;;;9.80;5.37;;;;;;;;;;5032647;28;20449;-46
2022/04/08 06:57:45;;;;;;;12.00;4.60;;;;;;;;;;5031929;28;20405;-47
2022/04/08 07:00:12;;;;;;;15.87;6.00;;;;;;;;;;5032546;28;20414;-47
2022/04/08 07:02:39;;;;;;;9.03;5.73;;;;;;;;;;5032593;28;20411;-47
2022/04/08 07:05:06;;;;;;;7.97;6.13;;;;;;;;;;5032360;28;20456;-47
2022/04/08 07:07:33;;;;;;;12.17;5.90;;;;;;;;;;5032369;28;20493;-47
2022/04/08 07:09:59;;;;;;;11.53;7.10;;;;;;;;;;5032150;28;20487;-47
2022/04/08 07:12:25;;;;;;;16.27;7.20;;;;;;;;;;5032360;28;20396;-48
2022/04/08 07:14:51;;;;;;;11.83;6.57;;;;;;;;;;5032581;28;20772;-46
2022/04/08 07:17:17;;;;;;;10.53;7.03;;;;;;;;;;5032403;28;20404;-47
2022/04/08 07:19:43;;;;;;;13.90;7.90;;;;;;;;;;5032001;28;20743;-47
2022/04/08 07:22:09;;;;;;;12.57;7.23;;;;;;;;;;5031939;28;20415;-47
2022/04/08 07:24:35;;;;;;;10.17;7.47;;;;;;;;;;5032211;28;20931;-47
2022/04/08 07:27:01;;;;;;;13.37;7.13;;;;;;;;;;5032351;28;20898;-47
2022/04/08 07:29:27;;;;;;;12.33;7.30;;;;;;;;;;5032211;28;20904;-47
2022/04/08 07:31:53;;;;;;;8.27;7.20;;;;;;;;;;5032003;28;20910;-47
2022/04/08 07:34:19;;;;;;;12.73;7.77;;;;;;;;;;5031844;28;20437;-48
2022/04/08 07:36:45;;;;;;;13.30;7.77;;;;;;;;;;5031939;28;20414;-48
2022/04/08 07:39:11;;;;;;;12.60;7.90;;;;;;;;;;5032028;28;20407;-47
2022/04/08 07:41:37;;;;;;;13.50;7.67;;;;;;;;;;5031861;28;20463;-47
2022/04/08 07:44:04;;;;;;;12.93;7.83;;;;;;;;;;5031705;28;20434;-47
2022/04/08 07:46:30;;;;;;;9.17;7.03;;;;;;;;;;5031924;28;20410;-47
2022/04/08 07:48:56;;;;;;;15.67;7.30;;;;;;;;;;5031718;28;20433;-48
2022/04/08 07:51:22;;;;;;;13.23;7.33;;;;;;;;;;5031513;28;20968;-48
2022/04/08 07:53:48;;;;;;;12.90;6.70;;;;;;;;;;5031729;28;20933;-47
2022/04/08 07:56:14;;;;;;;10.60;6.90;;;;;;;;;;5031746;28;20545;-47
2022/04/08 07:58:40;;;;;;;7.70;6.83;;;;;;;;;;5030449;28;20399;-47
2022/04/08 08:01:05;;;;;;;10.40;6.77;;;;;;;;;;5031407;28;20973;-47
2022/04/08 08:03:34;;;;;;;7.70;6.53;;;;;;;;;;5033215;28;20504;-49
2022/04/08 08:06:01;;;;;;;11.93;7.50;;;;;;;;;;5031684;28;20905;-50
2022/04/08 08:08:26;;;;;;;8.80;7.07;;;;;;;;;;5031598;28;20746;-51
2022/04/08 08:10:54;;;;;;;8.20;7.20;;;;;;;;;;5035231;28;20457;-51
2022/04/08 08:13:20;;;;;;;10.97;7.90;;;;;;;;;;5035619;28;20424;-50
2022/04/08 08:15:46;;;;;;;10.60;6.00;;;;;;;;;;5035757;28;20482;-50
2022/04/08 08:18:12;;;;;;;7.90;7.10;;;;;;;;;;5035501;28;20445;-48
2022/04/08 08:20:38;;;;;;;9.10;6.60;;;;;;;;;;5035579;28;20480;-49
2022/04/08 08:23:06;;;;;;;7.07;6.50;;;;;;;;;;5035057;28;20422;-48
2022/04/08 08:25:32;;;;;;;8.30;6.90;;;;;;;;;;5035527;28;20398;-48
2022/04/08 08:28:01;;;;;;;7.77;6.87;;;;;;;;;;5035511;28;20421;-48
2022/04/08 08:30:29;;;;;;;9.60;6.60;;;;;;;;;;5035188;28;20536;-50
2022/04/08 08:32:55;;;;;;;10.30;6.60;;;;;;;;;;5035113;28;20422;-50
2022/04/08 08:35:21;;;;;;;8.10;7.30;;;;;;;;;;5035401;28;20429;-49
2022/04/08 08:37:48;;;;;;;8.47;6.93;;;;;;;;;;5035275;28;20405;-50
2022/04/08 08:40:15;;;;;;;8.00;7.30;;;;;;;;;;5035006;28;20402;-50
2022/04/08 08:42:42;;;;;;;9.60;6.87;;;;;;;;;;5035097;28;20413;-51
2022/04/08 08:45:11;;;;;;;8.10;7.33;;;;;;;;;;5035096;28;20414;-48
2022/04/08 08:47:37;;;;;;;7.83;7.10;;;;;;;;;;5034851;28;20412;-49
2022/04/08 08:50:04;;;;;;;9.13;7.30;;;;;;;;;;5034701;28;20441;-49
2022/04/08 08:52:31;;;;;;;8.07;7.20;;;;;;;;;;5034959;28;20403;-48
2022/04/08 08:54:57;;;;;;;11.27;6.60;;;;;;;;;;5035010;28;20386;-48
2022/04/08 08:57:24;;;;;;;8.90;7.80;;;;;;;;;;5034937;28;20767;-49
2022/04/08 08:59:53;;;;;;;10.43;7.20;;;;;;;;;;5034678;28;20565;-48
2022/04/08 09:02:20;;;;;;;7.90;7.10;;;;;;;;;;5034676;28;20761;-49
2022/04/08 09:04:46;;;;;;;10.10;7.80;;;;;;;;;;5034725;28;20781;-49
2022/04/08 09:07:29;;;;;;;9.03;7.63;;;;;;;;;;5034823;28;20399;-50
2022/04/08 09:09:58;;;;;;;10.07;7.00;;;;;;;;;;5034361;28;20402;-48
2022/04/08 09:12:25;;;;;;;11.90;7.53;;;;;;;;;;5034397;28;20422;-50
2022/04/08 09:14:52;;;;;;;8.20;6.37;;;;;;;;;;5034451;28;20521;-48
2022/04/08 09:17:19;;;;;;;7.20;6.23;;;;;;;;;;5034540;28;20404;-48
2022/04/08 09:19:49;;;;;;;6.40;5.57;;;;;;;;;;5034371;28;20415;-48
2022/04/08 09:22:15;;;;;;;10.97;6.30;;;;;;;;;;5033690;28;20824;-46
2022/04/08 09:24:41;;;;;;;6.13;5.60;;;;;;;;;;5034327;28;20430;-46
2022/04/08 09:27:07;;;;;;;7.33;6.17;;;;;;;;;;5034317;28;20482;-47
2022/04/08 09:29:34;;;;;;;5.70;5.20;;;;;;;;;;5034084;28;20428;-47
2022/04/08 09:32:00;;;;;;;7.63;6.60;;;;;;;;;;5034104;28;20468;-48
2022/04/08 09:34:29;;;;;;;6.40;5.83;;;;;;;;;;5034173;28;20422;-49
2022/04/08 09:36:57;;;;;;;6.50;5.50;;;;;;;;;;5034070;28;20489;-48
2022/04/08 09:39:23;;;;;;;16.63;5.00;;;;;;;;;;5033403;28;20418;-48
2022/04/08 09:41:52;;;;;;;5.17;4.33;;;;;;;;;;5033979;28;20406;-48
2022/04/08 09:44:24;;;;;;;8.80;5.57;;;;;;;;;;5033570;28;20814;-47
2022/04/08 09:46:50;;;;;;;5.50;4.97;;;;;;;;;;5033204;28;20781;-49
2022/04/08 09:49:16;;;;;;;5.67;4.93;;;;;;;;;;5033424;28;20426;-47
2022/04/08 09:51:42;;;;;;;6.43;4.40;;;;;;;;;;5033411;28;20450;-46
2022/04/08 09:54:12;;;;;;;8.10;5.03;;;;;;;;;;5031971;28;20508;-48
2022/04/08 09:56:38;;;;;;;8.00;4.93;;;;;;;;;;5051682;28;20471;-50
2022/04/08 09:59:12;;;;;;;7.37;4.67;;;;;;;;;;5033634;28;20839;-47
2022/04/08 10:01:38;;;;;;;7.00;4.60;;;;;;;;;;5038341;28;20973;-49
2022/04/08 10:04:05;;;;;;;5.30;3.97;;;;;;;;;;5033053;28;20442;-48
2022/04/08 10:06:31;;;;;;;4.97;4.47;;;;;;;;;;5033640;28;20402;-47
2022/04/08 10:08:59;;;;;;;7.53;3.87;;;;;;;;;;5033485;28;20577;-49
2022/04/08 10:11:29;;;;;;;5.60;3.20;;;;;;;;;;5049851;28;20536;-48
2022/04/08 10:14:00;;;;;;;5.93;3.00;;;;;;;;;;5036546;28;20447;-47
2022/04/08 10:16:26;;;;;;;9.77;3.53;;;;;;;;;;5033677;28;20390;-47
2022/04/08 10:18:54;;;;;;;7.10;3.60;;;;;;;;;;5033023;28;20485;-47
2022/04/08 10:21:20;;;;;;;4.43;3.20;;;;;;;;;;5033203;28;20423;-47
2022/04/08 10:23:55;;;;;;;4.87;2.93;;;;;;;;;;5033011;28;20523;-48
2022/04/08 10:26:22;;;;;;;3.40;2.50;;;;;;;;;;5033607;28;20413;-46
2022/04/08 10:28:48;;;;;;;2.80;2.40;;;;;;;;;;5046046;28;20433;-49
2022/04/08 10:31:27;;;;;;;5.73;2.33;;;;;;;;;;5031761;28;20482;-47
2022/04/08 10:33:53;;;;;;;5.30;2.53;;;;;;;;;;5032180;28;20418;-47
2022/04/08 10:36:19;;;;;;;2.23;2.03;;;;;;;;;;5032409;28;20451;-48
2022/04/08 10:38:45;;;;;;;3.63;2.20;;;;;;;;;;5033001;28;20436;-47
2022/04/08 10:41:11;;;;;;;3.27;2.23;;;;;;;;;;5033017;28;20438;-47
2022/04/08 10:43:48;;;;;;;4.17;2.23;;;;;;;;;;5032934;28;20420;-47
2022/04/08 10:46:14;;;;;;;12.50;7.80;;;;;;;;;;5033137;28;20413;-47
2022/04/08 10:48:40;;;;;;;2.67;2.47;;;;;;;;;;5033051;28;20405;-47
2022/04/08 10:51:11;;;;;;;1.90;1.70;;;;;;;;;;5031337;28;20552;-47
2022/04/08 10:53:40;;;;;;;2.60;2.40;;;;;;;;;;5032877;28;20428;-50
2022/04/08 10:56:08;;;;;;;5.50;2.97;;;;;;;;;;5031806;28;20422;-47
2022/04/08 10:58:34;;;;;;;3.13;2.40;;;;;;;;;;5032729;28;20414;-48
2022/04/08 11:01:01;;;;;;;3.73;2.20;;;;;;;;;;5033836;28;20417;-48
2022/04/08 11:03:27;;;;;;;8.10;2.70;;;;;;;;;;5032749;28;20501;-47
2022/04/08 11:05:53;;;;;;;2.67;2.10;;;;;;;;;;5032474;28;20628;-46
2022/04/08 11:08:19;;;;;;;8.83;2.73;;;;;;;;;;5032126;28;20787;-46
2022/04/08 11:10:45;;;;;;;3.67;2.60;;;;;;;;;;5032506;28;20461;-48
2022/04/08 11:13:14;;;;;;;3.20;2.17;;;;;;;;;;5032102;28;20438;-48
2022/04/08 11:15:43;;;;;;;3.50;3.10;;;;;;;;;;5032626;28;20403;-47
2022/04/08 11:18:11;;;;;;;5.60;2.50;;;;;;;;;;5030729;28;20456;-47
2022/04/08 11:20:37;;;;;;;3.33;3.13;;;;;;;;;;5032213;28;20525;-46
2022/04/08 11:23:03;;;;;;;3.40;3.00;;;;;;;;;;5032403;28;20923;-46
2022/04/08 11:25:29;;;;;;;3.67;3.27;;;;;;;;;;5015715;28;20455;-46
2022/04/08 11:28:03;;;;;;;4.40;3.40;;;;;;;;;;5012533;28;20823;-45
2022/04/08 11:30:30;;;;;;;6.17;3.07;;;;;;;;;;5012732;28;20502;-46
2022/04/08 11:32:56;;;;;;;3.63;3.33;;;;;;;;;;5021303;28;20809;-46
2022/04/08 11:35:22;;;;;;;8.47;2.90;;;;;;;;;;5032269;28;20448;-46
2022/04/08 11:37:49;;;;;;;5.90;3.10;;;;;;;;;;5032125;28;20436;-46
2022/04/08 11:40:17;;;;;;;3.43;3.13;;;;;;;;;;5032056;28;20404;-46
2022/04/08 11:42:43;;;;;;;3.80;3.50;;;;;;;;;;5031857;28;20414;-53
2022/04/08 11:45:10;;;;;;;6.80;3.10;;;;;;;;;;5030576;28;20924;-47
2022/04/08 11:47:40;;;;;;;6.63;3.10;;;;;;;;;;5031617;28;20419;-45
2022/04/08 11:50:07;;;;;;;4.03;3.70;;;;;;;;;;5031180;28;20470;-47
2022/04/08 11:52:33;;;;;;;9.03;3.70;;;;;;;;;;5032233;28;20411;-50
2022/04/08 11:55:06;;;;;;;6.10;3.43;;;;;;;;;;5031048;28;20501;-51
2022/04/08 11:57:33;;;;;;;5.30;3.57;;;;;;;;;;5030981;28;20414;-50
2022/04/08 12:00:01;;;;;;;6.03;3.80;;;;;;;;;;5031235;28;20423;-50
2022/04/08 12:02:28;;;;;;;8.00;4.03;;;;;;;;;;5046459;28;20421;-50
2022/04/08 12:04:54;;;;;;;6.53;3.50;;;;;;;;;;5032178;28;20450;-52
2022/04/08 12:07:22;;;;;;;3.23;3.03;;;;;;;;;;5031842;28;20411;-50
2022/04/08 12:09:48;;;;;;;5.40;3.87;;;;;;;;;;5031097;28;20461;-50
2022/04/08 12:12:14;;;;;;;6.70;3.50;;;;;;;;;;5030686;28;20547;-50
2022/04/08 12:14:42;;;;;;;3.03;2.83;;;;;;;;;;5031138;28;20938;-51
2022/04/08 12:17:08;;;;;;;3.63;3.33;;;;;;;;;;5031087;28;20420;-50
2022/04/08 12:19:40;;;;;;;3.33;3.13;;;;;;;;;;5030574;28;20801;-49
2022/04/08 12:22:10;;;;;;;3.43;3.10;;;;;;;;;;5030790;28;20892;-50
2022/04/08 12:24:38;;;;;;;3.13;2.90;;;;;;;;;;5031282;28;20438;-50
2022/04/08 12:27:11;;;;;;;3.53;2.87;;;;;;;;;;5011608;28;20767;-51
2022/04/08 12:29:39;;;;;;;3.33;2.90;;;;;;;;;;5011510;28;20407;-48
2022/04/08 12:32:12;;;;;;;3.20;2.93;;;;;;;;;;5030154;28;20464;-49
2022/04/08 12:34:37;;;;;;;5.50;3.30;;;;;;;;;;5029068;28;20539;-50
2022/04/08 12:37:04;;;;;;;5.10;3.40;;;;;;;;;;5031264;28;20434;-50
2022/04/08 12:39:29;;;;;;;3.93;2.87;;;;;;;;;;5031039;28;20410;-50
2022/04/08 12:41:59;;;;;;;4.23;2.97;;;;;;;;;;5030763;28;20492;-50
2022/04/08 12:44:25;;;;;;;3.40;3.10;;;;;;;;;;5030694;28;20438;-51
2022/04/08 12:46:52;;;;;;;5.97;3.10;;;;;;;;;;5031110;28;20434;-50
2022/04/08 12:49:18;;;;;;;3.00;2.70;;;;;;;;;;5030632;28;20434;-47
2022/04/08 12:51:44;;;;;;;3.00;2.73;;;;;;;;;;5031030;28;21255;-51
2022/04/08 12:54:11;;;;;;;3.60;2.30;;;;;;;;;;5030902;28;20441;-50
2022/04/08 12:56:37;;;;;;;2.90;2.70;;;;;;;;;;5032731;28;20401;-47
2022/04/08 12:59:03;;;;;;;7.90;3.87;;;;;;;;;;5034696;28;20446;-47
2022/04/08 13:01:30;;;;;;;6.20;3.00;;;;;;;;;;5041663;28;20440;-47
2022/04/08 13:03:56;;;;;;;3.23;2.93;;;;;;;;;;5045149;28;20446;-47
2022/04/08 13:06:22;;;;;;;7.50;3.00;;;;;;;;;;5034883;28;20406;-47
2022/04/08 13:08:48;;;;;;;7.20;3.03;;;;;;;;;;5033860;28;20449;-47
2022/04/08 13:11:14;;;;;;;6.93;2.70;;;;;;;;;;5032737;28;20481;-48
2022/04/08 13:13:40;;;;;;;3.60;2.97;;;;;;;;;;5033873;28;20431;-48
2022/04/08 13:16:06;;;;;;;5.67;2.90;;;;;;;;;;5035154;28;20765;-47
2022/04/08 13:18:32;;;;;;;4.23;2.90;;;;;;;;;;5032884;28;20410;-49
2022/04/08 13:20:59;;;;;;;3.80;3.37;;;;;;;;;;5014457;28;20418;-49
2022/04/08 13:23:25;;;;;;;3.63;2.90;;;;;;;;;;5014822;28;20422;-50
2022/04/08 13:25:51;;;;;;;4.33;2.83;;;;;;;;;;5014862;28;20392;-49
2022/04/08 13:28:17;;;;;;;5.83;2.97;;;;;;;;;;5027933;28;20399;-51
2022/04/08 13:30:43;;;;;;;3.80;3.03;;;;;;;;;;5034054;28;20446;-51
2022/04/08 13:33:09;;;;;;;5.43;2.63;;;;;;;;;;5034460;28;20513;-49
2022/04/08 13:35:36;;;;;;;2.70;2.50;;;;;;;;;;5034581;28;20464;-52
2022/04/08 13:38:02;;;;;;;2.60;2.40;;;;;;;;;;5034557;28;20923;-48
2022/04/08 13:40:28;;;;;;;3.57;2.37;;;;;;;;;;5034196;28;20494;-49
2022/04/08 13:42:55;;;;;;;9.47;2.37;;;;;;;;;;5032903;28;20525;-49
2022/04/08 13:45:21;;;;;;;2.60;2.40;;;;;;;;;;5034390;28;20411;-49
2022/04/08 13:47:49;;;;;;;4.60;2.70;;;;;;;;;;5034210;28;20414;-49
2022/04/08 13:50:15;;;;;;;3.40;2.60;;;;;;;;;;5032773;28;20868;-49
2022/04/08 13:52:41;;;;;;;4.40;2.77;;;;;;;;;;5030035;28;20468;-48
2022/04/08 13:55:08;;;;;;;5.07;2.80;;;;;;;;;;5033944;28;20420;-48
2022/04/08 13:57:34;;;;;;;4.03;2.10;;;;;;;;;;5031740;28;20449;-49
2022/04/08 13:59:59;;;;;;;8.73;2.10;;;;;;;;;;5033738;28;20402;-49
2022/04/08 14:02:26;;;;;;;3.13;2.20;;;;;;;;;;5038784;28;20422;-48
2022/04/08 14:04:52;;;;;;;3.33;2.80;;;;;;;;;;5032993;28;20937;-48
2022/04/08 14:07:18;;;;;;;5.13;3.10;;;;;;;;;;5032763;28;20491;-48
2022/04/08 14:09:45;;;;;;;3.20;2.23;;;;;;;;;;5032765;28;20418;-48
2022/04/08 14:12:11;;;;;;;3.40;2.70;;;;;;;;;;5033077;28;20457;-50
2022/04/08 14:14:37;;;;;;;4.13;3.27;;;;;;;;;;5033221;28;20450;-50
2022/04/08 14:17:03;;;;;;;3.40;2.70;;;;;;;;;;5033574;28;20406;-50
2022/04/08 14:19:29;;;;;;;3.10;2.80;;;;;;;;;;5032939;28;20417;-48
2022/04/08 14:21:55;;;;;;;3.87;2.67;;;;;;;;;;5032674;28;20782;-48
2022/04/08 14:24:21;;;;;;;6.23;3.70;;;;;;;;;;5031781;28;21061;-48
2022/04/08 14:26:47;;;;;;;3.80;3.07;;;;;;;;;;5037955;28;20985;-50
2022/04/08 14:29:14;;;;;;;4.80;3.20;;;;;;;;;;5035135;28;20422;-46
2022/04/08 14:31:40;;;;;;;12.10;3.10;;;;;;;;;;5033026;28;20451;-46
2022/04/08 14:34:07;;;;;;;7.20;4.90;;;;;;;;;;5022356;28;20523;-49